createdAt,value
2017-05-24T18:10:45.898Z,7.46
2017-05-24T18:13:15.990Z,8.12
2017-05-24T18:15:44.838Z,10.38
2017-05-24T18:18:13.485Z,6.84
2017-05-24T18:20:40.788Z,8.40
2017-05-24T18:23:07.262Z,6.66
2017-05-24T18:25:33.829Z,8.58
2017-05-24T18:28:00.225Z,7.52
2017-05-24T18:30:27.585Z,6.50
2017-05-24T18:32:54.003Z,5.50
2017-05-24T18:35:20.405Z,5.70
2017-05-24T18:37:46.810Z,5.26
2017-05-24T18:40:13.198Z,7.70
2017-05-24T18:42:39.519Z,7.70
2017-05-24T18:45:05.862Z,9.56
2017-05-24T18:47:32.250Z,7.40
2017-05-24T18:49:58.645Z,5.72
2017-05-24T18:52:25.076Z,5.42
2017-05-24T18:54:51.470Z,7.88
2017-05-24T18:57:17.829Z,5.50
2017-05-24T18:59:44.194Z,6.28
2017-05-24T19:02:10.645Z,8.04
2017-05-24T19:04:37.019Z,9.86
2017-05-24T19:07:03.364Z,5.94
2017-05-24T19:09:29.702Z,9.82
2017-05-24T19:11:56.027Z,5.84
2017-05-24T19:14:22.442Z,7.40
2017-05-24T19:16:48.755Z,6.68
2017-05-24T19:19:15.129Z,11.08
2017-05-24T19:21:41.562Z,8.52
2017-05-24T19:24:07.937Z,12.30
2017-05-24T19:26:34.346Z,5.40
2017-05-24T19:29:00.704Z,6.66
2017-05-24T19:31:27.062Z,6.42
2017-05-24T19:33:53.644Z,6.94
2017-05-24T19:36:20.039Z,10.44
2017-05-24T19:38:46.381Z,5.46
2017-05-24T19:41:12.744Z,4.66
2017-05-24T19:43:39.092Z,4.86
2017-05-24T19:46:05.510Z,4.84
2017-05-24T19:48:31.871Z,2.48
2017-05-24T19:50:58.213Z,5.64
2017-05-24T19:53:24.664Z,4.92
2017-05-24T19:55:51.181Z,2.86
2017-05-24T19:58:17.655Z,3.32
2017-05-24T20:00:45.609Z,2.42
2017-05-24T20:03:11.948Z,3.42
2017-05-24T20:05:38.364Z,2.60
2017-05-24T20:08:05.080Z,2.62
2017-05-24T20:10:32.608Z,2.88
2017-05-24T20:12:59.446Z,2.90
2017-05-24T20:15:25.905Z,3.02
2017-05-24T20:17:52.798Z,2.38
2017-05-24T20:20:19.211Z,2.70
2017-05-24T20:22:45.814Z,3.54
2017-05-24T20:25:12.192Z,2.10
2017-05-24T20:27:38.601Z,2.08
2017-05-24T20:30:05.055Z,2.40
2017-05-24T20:32:31.509Z,2.34
2017-05-24T20:34:57.861Z,2.60
2017-05-24T20:37:24.226Z,2.96
2017-05-24T20:39:50.928Z,2.58
2017-05-24T20:42:17.357Z,2.72
2017-05-24T20:44:44.091Z,2.42
2017-05-24T20:47:10.481Z,3.42
2017-05-24T20:49:36.863Z,2.80
2017-05-24T20:52:03.259Z,3.60
2017-05-24T20:54:29.760Z,2.52
2017-05-24T20:57:00.550Z,2.62
2017-05-24T20:59:27.129Z,3.24
2017-05-24T21:01:53.694Z,3.14
2017-05-24T21:04:20.079Z,5.04
2017-05-24T21:06:47.246Z,3.98
2017-05-24T21:09:16.968Z,3.24
2017-05-24T21:11:44.158Z,3.26
2017-05-24T21:14:10.619Z,2.92
2017-05-24T21:16:36.996Z,3.74
2017-05-24T21:19:05.659Z,3.38
2017-05-24T21:21:32.026Z,5.88
2017-05-24T21:23:59.559Z,4.08
2017-05-24T21:26:26.117Z,2.82
2017-05-24T21:28:52.524Z,4.42
2017-05-24T21:31:22.090Z,3.78
2017-05-24T21:33:51.482Z,4.70
2017-05-24T21:36:18.107Z,3.16
2017-05-24T21:38:44.430Z,2.64
2017-05-24T21:41:10.795Z,2.74
2017-05-24T21:43:38.959Z,4.42
2017-05-24T21:46:06.326Z,3.40
2017-05-24T21:48:32.702Z,3.52
2017-05-24T21:51:00.428Z,2.80
2017-05-24T21:53:26.828Z,3.32
2017-05-24T21:55:53.214Z,3.40
2017-05-24T21:58:19.580Z,3.70
2017-05-24T22:00:45.921Z,3.10
2017-05-24T22:03:12.250Z,3.96
2017-05-24T22:05:39.432Z,4.10
2017-05-24T22:08:05.946Z,3.56
2017-05-24T22:10:32.310Z,3.58
2017-05-24T22:13:00.037Z,4.52
2017-05-24T22:15:26.420Z,3.94
2017-05-24T22:17:53.762Z,4.02
2017-05-24T22:20:20.638Z,3.06
2017-05-24T22:22:46.998Z,4.04
2017-05-24T22:25:13.362Z,3.76
2017-05-24T22:27:41.462Z,4.20
2017-05-24T22:30:07.928Z,4.08
2017-05-24T22:32:34.276Z,3.44
2017-05-24T22:35:00.627Z,3.80
2017-05-24T22:37:26.992Z,4.00
2017-05-24T22:39:53.352Z,3.60
2017-05-24T22:42:19.715Z,4.80
2017-05-24T22:44:46.057Z,4.48
2017-05-24T22:47:12.398Z,4.22
2017-05-24T22:49:38.766Z,3.58
2017-05-24T22:52:05.122Z,3.38
2017-05-24T22:54:31.453Z,4.24
2017-05-24T22:56:57.787Z,6.08
2017-05-24T22:59:24.160Z,5.10
2017-05-24T23:01:50.497Z,3.70
2017-05-24T23:04:16.840Z,4.00
2017-05-24T23:06:43.258Z,5.44
2017-05-24T23:09:09.601Z,5.12
2017-05-24T23:11:35.969Z,4.62
2017-05-24T23:14:02.302Z,3.94
2017-05-24T23:16:28.655Z,4.96
2017-05-24T23:18:54.965Z,3.84
2017-05-24T23:21:21.300Z,4.00
2017-05-24T23:23:47.639Z,4.80
2017-05-24T23:26:13.995Z,4.32
2017-05-24T23:28:40.350Z,4.10
2017-05-24T23:31:06.667Z,3.44
2017-05-24T23:33:33.023Z,4.86
2017-05-24T23:35:59.401Z,4.16
2017-05-24T23:38:25.758Z,3.64
2017-05-24T23:40:52.106Z,4.08
2017-05-24T23:43:18.435Z,4.56
2017-05-24T23:45:44.767Z,3.56
2017-05-24T23:48:11.110Z,4.18
2017-05-24T23:50:37.446Z,4.44
2017-05-24T23:53:03.868Z,3.30
2017-05-24T23:55:30.236Z,6.18
2017-05-24T23:57:56.581Z,3.96
